Time;durP1;ratioP1;P1;durP2;ratioP2;P2;SDS_P1;SDS_P2;PMS_P1;PMS_P2;Temp;Humidity;BMP_temperature;BMP_pressure;BME280_temperature;BME280_humidity;BME280_pressure;Samples;Min_cycle;Max_cycle;Signal;HPM_P1;HPM_P2
2022/04/11 00:01:15;;;;;;;14.80;8.10;;;1.70;99.90;;;;;;5173255;28;20052;-75
2022/04/11 00:03:48;;;;;;;19.90;9.50;;;1.70;99.90;;;;;;5170539;28;20045;-75
2022/04/11 00:06:20;;;;;;;20.03;9.10;;;1.70;99.90;;;;;;5175024;28;20046;-75
2022/04/11 00:08:53;;;;;;;14.52;8.20;;;1.60;99.90;;;;;;5138740;28;20491;-75
2022/04/11 00:11:25;;;;;;;13.13;8.50;;;1.60;99.90;;;;;;5171320;28;20053;-74
2022/04/11 00:13:57;;;;;;;14.90;9.48;;;1.60;99.90;;;;;;5172166;28;20046;-74
2022/04/11 00:16:31;;;;;;;16.48;9.43;;;1.50;99.90;;;;;;5181924;28;20046;-75
2022/04/11 00:19:03;;;;;;;16.58;9.93;;;1.40;99.90;;;;;;5174040;28;20037;-75
2022/04/11 00:21:36;;;;;;;14.43;8.90;;;1.40;99.90;;;;;;5172546;28;20051;-75
2022/04/11 00:24:09;;;;;;;13.45;8.73;;;1.40;99.90;;;;;;5181502;28;20619;-75
2022/04/11 00:26:41;;;;;;;12.23;8.25;;;1.40;99.90;;;;;;5177371;28;20049;-75
2022/04/11 00:29:14;;;;;;;15.45;9.18;;;1.50;99.90;;;;;;5174006;28;20045;-75
2022/04/11 00:31:46;;;;;;;12.88;8.05;;;1.60;99.90;;;;;;5178355;28;20567;-75
2022/04/11 00:34:18;;;;;;;17.38;10.02;;;1.50;99.90;;;;;;5179132;28;20068;-75
2022/04/11 00:36:52;;;;;;;;;;;1.50;99.90;;;;;;5174229;28;20053;-76
2022/04/11 00:39:25;;;;;;;12.30;8.05;;;1.40;99.90;;;;;;5170148;28;19996;-76
2022/04/11 00:41:57;;;;;;;17.02;9.63;;;1.40;99.90;;;;;;5168056;28;20050;-76
2022/04/11 00:44:29;;;;;;;14.23;8.48;;;1.40;99.90;;;;;;5176031;28;20050;-76
2022/04/11 00:47:02;;;;;;;14.90;8.75;;;1.40;99.90;;;;;;5170944;28;20681;-76
2022/04/11 00:49:35;;;;;;;14.73;8.35;;;1.40;99.90;;;;;;5179322;28;20033;-76
2022/04/11 00:52:08;;;;;;;14.10;8.35;;;1.40;99.90;;;;;;5174008;28;20057;-76
2022/04/11 00:54:42;;;;;;;16.20;8.45;;;1.40;99.90;;;;;;5170766;28;20052;-76
2022/04/11 00:57:15;;;;;;;17.80;9.57;;;1.40;99.90;;;;;;5167636;28;20057;-76
2022/04/11 00:59:47;;;;;;;13.55;8.60;;;1.40;99.90;;;;;;5170129;28;20057;-75
2022/04/11 01:02:21;;;;;;;13.15;8.32;;;1.30;99.90;;;;;;5164057;28;20050;-75
2022/04/11 01:04:53;;;;;;;14.63;8.18;;;1.30;99.90;;;;;;5170407;28;20045;-76
2022/04/11 01:07:26;;;;;;;12.93;8.40;;;1.30;99.90;;;;;;5175890;28;20072;-76
2022/04/11 01:09:58;;;;;;;15.13;9.70;;;1.20;99.90;;;;;;5174167;28;20492;-76
2022/04/11 01:12:31;;;;;;;15.35;9.38;;;1.20;99.90;;;;;;5178496;28;20493;-76
2022/04/11 01:15:05;;;;;;;14.15;8.90;;;1.20;99.90;;;;;;5174152;28;20437;-75
2022/04/11 01:17:39;;;;;;;18.17;9.27;;;1.20;99.90;;;;;;5180834;28;20057;-76
2022/04/11 01:20:13;;;;;;;13.50;8.05;;;1.30;99.90;;;;;;5172511;28;20777;-76
2022/04/11 01:22:47;;;;;;;11.98;7.78;;;1.20;99.90;;;;;;5178803;28;20069;-76
2022/04/11 01:25:22;;;;;;;13.65;7.72;;;1.20;99.90;;;;;;5182154;28;20049;-74
2022/04/11 01:27:55;;;;;;;13.77;7.55;;;1.30;99.90;;;;;;5182209;28;20046;-76
2022/04/11 01:30:28;;;;;;;10.70;7.63;;;1.30;99.90;;;;;;5161157;28;20061;-75
2022/04/11 01:33:00;;;;;;;12.52;7.55;;;1.30;99.90;;;;;;5171717;28;20402;-74
2022/04/11 01:35:32;;;;;;;11.85;8.05;;;1.30;99.90;;;;;;5186998;28;20410;-74
2022/04/11 01:38:08;;;;;;;12.77;8.00;;;1.30;99.90;;;;;;5178905;28;20045;-74
2022/04/11 01:40:52;;;;;;;13.15;7.78;;;1.30;99.90;;;;;;5142210;28;20061;-75
2022/04/11 01:43:26;;;;;;;15.15;7.57;;;1.20;99.90;;;;;;5178171;28;20054;-75
2022/04/11 01:46:00;;;;;;;12.15;8.13;;;1.30;99.90;;;;;;5158616;28;20042;-75
2022/04/11 01:48:46;;;;;;;15.18;8.73;;;1.20;99.90;;;;;;5166429;28;20033;-75
2022/04/11 01:51:19;;;;;;;12.18;7.45;;;1.30;99.90;;;;;;5190763;28;20049;-75
2022/04/11 01:53:51;;;;;;;14.15;8.18;;;1.30;99.90;;;;;;5175168;28;20049;-75
2022/04/11 01:56:23;;;;;;;15.32;7.53;;;1.20;99.90;;;;;;5182350;28;20045;-75
2022/04/11 01:58:56;;;;;;;12.03;7.33;;;1.20;99.90;;;;;;5170957;28;20068;-75
2022/04/11 02:01:29;;;;;;;12.77;7.18;;;1.20;99.90;;;;;;5161890;28;20296;-74
2022/04/11 02:04:01;;;;;;;12.60;8.00;;;1.20;99.90;;;;;;5191814;28;20049;-75
2022/04/11 02:06:34;;;;;;;11.95;7.07;;;1.20;99.90;;;;;;5165980;28;20057;-75
2022/04/11 02:09:06;;;;;;;12.10;7.40;;;1.20;99.90;;;;;;5178347;28;20055;-76
2022/04/11 02:11:39;;;;;;;10.63;6.78;;;1.20;99.90;;;;;;5179267;28;20049;-75
2022/04/11 02:14:13;;;;;;;11.63;7.78;;;1.20;99.90;;;;;;5182276;28;20573;-75
2022/04/11 02:16:45;;;;;;;15.07;6.90;;;1.20;99.90;;;;;;5156006;28;20034;-75
2022/04/11 02:19:18;;;;;;;11.23;6.18;;;1.20;99.90;;;;;;5168433;28;20061;-75
2022/04/11 02:21:50;;;;;;;9.98;6.45;;;1.20;99.90;;;;;;5139789;28;20049;-75
2022/04/11 02:24:22;;;;;;;11.07;6.78;;;1.20;99.90;;;;;;5159926;28;20058;-76
2022/04/11 02:26:55;;;;;;;10.10;5.68;;;1.10;99.90;;;;;;5158557;28;20053;-75
2022/04/11 02:29:28;;;;;;;12.43;6.30;;;1.10;99.90;;;;;;5161450;28;20378;-75
2022/04/11 02:32:01;;;;;;;9.97;6.80;;;1.20;99.90;;;;;;5176637;28;20041;-75
2022/04/11 02:34:33;;;;;;;11.82;6.57;;;1.20;99.90;;;;;;5173642;28;20311;-75
2022/04/11 02:37:06;;;;;;;9.30;6.05;;;1.10;99.90;;;;;;5161030;28;20366;-75
2022/04/11 02:39:38;;;;;;;12.13;6.38;;;1.10;99.90;;;;;;5168561;28;20049;-75
2022/04/11 02:42:22;;;;;;;10.55;6.85;;;1.10;99.90;;;;;;5169439;28;20545;-75
2022/04/11 02:44:56;;;;;;;9.52;6.00;;;1.20;99.90;;;;;;5169347;28;20608;-75
2022/04/11 02:47:29;;;;;;;11.68;6.32;;;1.10;99.90;;;;;;5172969;28;20037;-75
2022/04/11 02:50:03;;;;;;;11.40;5.68;;;1.10;99.90;;;;;;5171650;28;20050;-75
2022/04/11 02:52:55;;;;;;;12.27;5.68;;;1.10;99.90;;;;;;5169021;28;20521;-75
2022/04/11 02:55:27;;;;;;;10.85;5.82;;;1.20;99.90;;;;;;5180697;28;20048;-75
2022/04/11 02:58:01;;;;;;;12.38;6.57;;;1.20;99.90;;;;;;5180618;28;20068;-75
2022/04/11 03:00:34;;;;;;;6.73;4.93;;;1.10;99.90;;;;;;5169917;28;20045;-75
2022/04/11 03:03:06;;;;;;;8.75;5.40;;;1.20;99.90;;;;;;5170201;28;20052;-75
2022/04/11 03:05:39;;;;;;;7.85;5.43;;;1.20;99.90;;;;;;5165597;28;20519;-75
2022/04/11 03:08:14;;;;;;;10.93;5.75;;;1.20;99.90;;;;;;5176289;28;20049;-75
2022/04/11 03:10:47;;;;;;;9.98;6.45;;;1.10;99.90;;;;;;5156812;28;20045;-75
2022/04/11 03:13:19;;;;;;;8.68;5.55;;;1.10;99.90;;;;;;5180087;28;20069;-75
2022/04/11 03:15:52;;;;;;;9.27;6.15;;;1.10;99.90;;;;;;5128619;28;20050;-75
2022/04/11 03:18:26;;;;;;;13.88;5.55;;;1.10;99.90;;;;;;5167716;28;20076;-75
2022/04/11 03:20:58;;;;;;;10.05;6.45;;;1.10;99.90;;;;;;5176677;28;20050;-75
2022/04/11 03:23:32;;;;;;;9.35;6.05;;;1.10;99.90;;;;;;5171753;28;20049;-75
2022/04/11 03:26:05;;;;;;;;;;;1.10;99.90;;;;;;5173208;28;20060;-75
2022/04/11 03:28:39;;;;;;;11.10;6.57;;;1.00;99.90;;;;;;5187186;28;20495;-74
2022/04/11 03:31:12;;;;;;;12.52;6.20;;;1.00;99.90;;;;;;5193202;28;20044;-74
2022/04/11 03:33:45;;;;;;;10.50;6.10;;;1.00;99.90;;;;;;5184110;28;20069;-75
2022/04/11 03:36:18;;;;;;;10.57;6.65;;;1.00;99.90;;;;;;5172423;28;20060;-75
2022/04/11 03:38:51;;;;;;;10.88;6.25;;;1.00;99.90;;;;;;5173797;28;20037;-74
2022/04/11 03:41:25;;;;;;;10.13;6.65;;;0.90;99.90;;;;;;5180998;28;20045;-74
2022/04/11 03:44:06;;;;;;;12.07;6.72;;;0.90;99.90;;;;;;5138027;28;20044;-75
2022/04/11 03:46:39;;;;;;;13.52;6.93;;;1.00;99.90;;;;;;5170351;28;20045;-75
2022/04/11 03:49:15;;;;;;;12.50;6.82;;;0.90;99.90;;;;;;5156324;28;20053;-75
2022/04/11 03:51:48;;;;;;;11.13;7.13;;;0.90;99.90;;;;;;5157000;28;20588;-75
2022/04/11 03:54:21;;;;;;;10.05;6.50;;;0.90;99.90;;;;;;5175449;28;20509;-74
2022/04/11 03:56:53;;;;;;;9.73;6.35;;;0.90;99.90;;;;;;5165362;28;20056;-75
2022/04/11 03:59:26;;;;;;;9.15;6.25;;;1.00;99.90;;;;;;5174123;28;20521;-75
2022/04/11 04:01:59;;;;;;;10.83;6.73;;;1.00;99.90;;;;;;5150594;28;20061;-74
2022/04/11 04:04:32;;;;;;;9.65;6.30;;;1.00;99.90;;;;;;5144019;28;20096;-74
2022/04/11 04:07:05;;;;;;;12.40;6.72;;;1.00;99.90;;;;;;5176072;28;20053;-74
2022/04/11 04:09:37;;;;;;;8.82;5.95;;;1.00;99.90;;;;;;5174705;28;20061;-74
2022/04/11 04:12:10;;;;;;;15.20;6.47;;;1.00;99.90;;;;;;5164515;28;20048;-74
2022/04/11 04:14:49;;;;;;;8.90;5.55;;;1.00;99.90;;;;;;5179398;28;20049;-74
2022/04/11 04:17:22;;;;;;;11.35;6.45;;;1.00;99.90;;;;;;5160347;28;20073;-75
2022/04/11 04:20:04;;;;;;;10.23;6.10;;;1.00;99.90;;;;;;5171816;28;20059;-74
2022/04/11 04:22:36;;;;;;;;;;;1.10;99.90;;;;;;5176252;28;20058;-74
2022/04/11 04:25:11;;;;;;;10.30;5.85;;;1.00;99.90;;;;;;5190884;28;20388;-74
2022/04/11 04:27:43;;;;;;;10.88;5.95;;;0.90;99.90;;;;;;5170423;28;20497;-74
2022/04/11 04:30:16;;;;;;;10.13;5.90;;;0.90;99.90;;;;;;5157669;28;20421;-73
2022/04/11 04:32:49;;;;;;;8.23;5.43;;;0.90;99.90;;;;;;5169308;28;20308;-73
2022/04/11 04:35:22;;;;;;;9.05;6.00;;;0.80;99.90;;;;;;5181726;28;20910;-74
2022/04/11 04:37:55;;;;;;;9.25;6.15;;;0.80;99.90;;;;;;5158164;28;20042;-74
2022/04/11 04:40:29;;;;;;;10.90;6.18;;;0.80;99.90;;;;;;5175272;28;20053;-74
2022/04/11 04:43:04;;;;;;;15.77;8.15;;;0.80;99.90;;;;;;5173011;28;20494;-74
2022/04/11 04:45:37;;;;;;;11.30;5.78;;;0.80;99.90;;;;;;5158299;28;20107;-74
2022/04/11 04:48:21;;;;;;;10.13;5.85;;;0.80;99.90;;;;;;5181825;28;20670;-73
2022/04/11 04:50:54;;;;;;;13.73;6.57;;;0.80;99.90;;;;;;5172109;28;20038;-74
2022/04/11 04:53:27;;;;;;;10.73;5.93;;;0.90;99.90;;;;;;5172595;28;20041;-74
2022/04/11 04:56:04;;;;;;;11.88;6.05;;;0.90;99.90;;;;;;5168919;28;20053;-74
2022/04/11 04:58:41;;;;;;;8.68;5.95;;;0.90;99.90;;;;;;5145264;28;20060;-74
2022/04/11 05:01:14;;;;;;;10.03;6.83;;;1.00;99.90;;;;;;5160270;28;20049;-74
2022/04/11 05:03:47;;;;;;;9.13;6.60;;;0.90;99.90;;;;;;5171788;28;20320;-74
2022/04/11 05:06:25;;;;;;;10.02;6.05;;;1.00;99.90;;;;;;5179983;28;20054;-74
2022/04/11 05:08:58;;;;;;;11.27;7.00;;;1.10;99.90;;;;;;5162261;28;20037;-75
2022/04/11 05:11:31;;;;;;;10.70;5.95;;;1.00;99.90;;;;;;5170470;28;20567;-73
2022/04/11 05:14:04;;;;;;;9.35;5.90;;;1.10;99.90;;;;;;5175946;28;20675;-72
2022/04/11 05:16:39;;;;;;;13.52;6.43;;;1.10;99.90;;;;;;5150398;28;20060;-72
2022/04/11 05:19:16;;;;;;;10.40;6.32;;;1.20;99.90;;;;;;5168063;28;20046;-72
2022/04/11 05:21:49;;;;;;;9.73;6.18;;;1.30;99.90;;;;;;5180726;28;20060;-72
2022/04/11 05:24:21;;;;;;;9.45;5.70;;;1.30;99.90;;;;;;5163723;28;20528;-72
2022/04/11 05:26:54;;;;;;;10.20;6.80;;;1.40;99.90;;;;;;5128600;28;20748;-73
2022/04/11 05:29:26;;;;;;;8.13;5.18;;;1.50;99.90;;;;;;5177525;28;20131;-73
2022/04/11 05:31:59;;;;;;;8.75;5.90;;;1.50;99.90;;;;;;5166723;28;20049;-74
2022/04/11 05:34:32;;;;;;;9.07;4.95;;;1.60;99.90;;;;;;5166283;28;20156;-73
2022/04/11 05:37:09;;;;;;;11.95;5.43;;;1.60;99.90;;;;;;5163554;28;20711;-73
2022/04/11 05:39:42;;;;;;;8.15;5.93;;;1.60;99.90;;;;;;5165004;28;21632;-74
2022/04/11 05:42:14;;;;;;;13.30;5.53;;;1.70;99.90;;;;;;5172590;28;20053;-74
2022/04/11 05:44:47;;;;;;;12.63;6.32;;;1.70;99.90;;;;;;5154941;28;20053;-73
2022/04/11 05:47:19;;;;;;;9.50;5.50;;;1.80;99.90;;;;;;5169852;28;20811;-73
2022/04/11 05:49:58;;;;;;;12.40;5.75;;;1.80;99.90;;;;;;5177203;28;20415;-73
2022/04/11 05:52:30;;;;;;;9.15;5.65;;;1.90;99.90;;;;;;5172955;28;20050;-74
2022/04/11 05:55:03;;;;;;;7.07;5.15;;;2.00;99.90;;;;;;5174753;28;20050;-74
2022/04/11 05:57:35;;;;;;;11.02;6.00;;;2.00;99.90;;;;;;5157995;28;20045;-74
2022/04/11 06:00:08;;;;;;;12.07;6.10;;;2.10;99.90;;;;;;5139859;28;21007;-73
2022/04/11 06:02:44;;;;;;;8.38;5.57;;;2.20;99.90;;;;;;5164646;28;20568;-73
2022/04/11 06:05:18;;;;;;;7.63;5.75;;;2.20;99.90;;;;;;5151213;28;20060;-73
2022/04/11 06:07:51;;;;;;;10.70;6.07;;;2.20;99.90;;;;;;5167697;28;20441;-74
2022/04/11 06:10:25;;;;;;;9.63;6.40;;;2.20;99.90;;;;;;5152338;28;20616;-72
2022/04/11 06:12:58;;;;;;;9.00;5.90;;;2.30;99.90;;;;;;5163606;28;20058;-72
2022/04/11 06:15:30;;;;;;;8.95;5.45;;;2.30;99.90;;;;;;5165555;28;20337;-73
2022/04/11 06:18:04;;;;;;;9.48;6.20;;;2.30;99.90;;;;;;5172657;28;20046;-72
2022/04/11 06:20:36;;;;;;;8.93;6.00;;;2.40;99.90;;;;;;5169213;28;20054;-72
2022/04/11 06:23:09;;;;;;;10.85;6.43;;;2.50;99.90;;;;;;5167979;28;20050;-72
2022/04/11 06:25:42;;;;;;;11.90;5.68;;;2.50;99.90;;;;;;5138837;28;20068;-72
2022/04/11 06:28:14;;;;;;;9.15;5.80;;;2.60;99.90;;;;;;5137163;28;20553;-73
2022/04/11 06:30:47;;;;;;;9.30;6.10;;;2.70;99.90;;;;;;5155715;28;20064;-72
2022/04/11 06:33:19;;;;;;;9.38;6.07;;;2.80;99.90;;;;;;5160316;28;20763;-72
2022/04/11 06:35:52;;;;;;;9.00;6.27;;;2.80;99.90;;;;;;5158524;28;20034;-72
2022/04/11 06:38:25;;;;;;;7.63;5.82;;;3.00;99.90;;;;;;5169513;28;20728;-72
2022/04/11 06:40:58;;;;;;;10.15;5.72;;;3.10;99.90;;;;;;5155774;28;20528;-71
2022/04/11 06:43:31;;;;;;;9.70;6.20;;;3.20;99.90;;;;;;5158644;28;20049;-72
2022/04/11 06:46:38;;;;;;;8.73;5.53;;;3.30;99.90;;;;;;5096319;28;20309;-73
2022/04/11 06:49:11;;;;;;;10.07;6.18;;;3.30;99.90;;;;;;5149993;28;20062;-72
2022/04/11 06:51:43;;;;;;;8.63;5.83;;;3.30;99.90;;;;;;5176215;28;20042;-72
2022/04/11 06:54:16;;;;;;;8.48;5.15;;;3.30;99.90;;;;;;5139396;28;20049;-74
2022/04/11 06:56:48;;;;;;;9.57;5.53;;;3.40;99.90;;;;;;5161819;28;20068;-72
2022/04/11 06:59:20;;;;;;;8.95;6.32;;;3.40;99.90;;;;;;5162127;28;20053;-72
2022/04/11 07:01:53;;;;;;;7.45;5.25;;;3.60;99.90;;;;;;5155052;28;20060;-72
2022/04/11 07:04:25;;;;;;;9.23;6.20;;;3.70;99.90;;;;;;5156098;28;20053;-72
2022/04/11 07:06:58;;;;;;;9.45;5.75;;;3.80;99.90;;;;;;5170489;28;20057;-73
2022/04/11 07:09:31;;;;;;;10.15;5.57;;;3.90;99.90;;;;;;5162310;28;20057;-73
2022/04/11 07:12:04;;;;;;;11.93;6.43;;;3.90;99.90;;;;;;5157381;28;20046;-73
2022/04/11 07:14:36;;;;;;;10.50;6.10;;;3.90;99.90;;;;;;5166725;28;20060;-73
2022/04/11 07:17:11;;;;;;;8.73;5.30;;;4.00;99.90;;;;;;5168133;28;20046;-72
2022/04/11 07:19:43;;;;;;;6.57;5.18;;;4.10;99.90;;;;;;5159159;28;20501;-72
2022/04/11 07:22:21;;;;;;;9.13;6.27;;;4.30;99.90;;;;;;5155515;28;20476;-73
2022/04/11 07:24:53;;;;;;;9.23;5.35;;;4.40;99.90;;;;;;5156758;28;20052;-72
2022/04/11 07:27:26;;;;;;;8.82;4.93;;;4.60;99.90;;;;;;5163130;28;20057;-73
2022/04/11 07:29:58;;;;;;;10.13;4.90;;;4.90;99.90;;;;;;5153895;28;20618;-73
2022/04/11 07:32:30;;;;;;;7.55;5.07;;;5.20;98.90;;;;;;5153150;28;20064;-72
2022/04/11 07:35:03;;;;;;;7.68;5.05;;;5.30;97.40;;;;;;5163383;28;20045;-73
2022/04/11 07:37:36;;;;;;;9.00;5.30;;;5.30;96.00;;;;;;5173257;28;20048;-73
2022/04/11 07:40:09;;;;;;;9.30;5.65;;;5.30;95.80;;;;;;5162707;28;20304;-72
2022/04/11 07:42:41;;;;;;;11.18;5.47;;;5.50;96.20;;;;;;5157156;28;20045;-73
2022/04/11 07:45:14;;;;;;;9.77;5.43;;;5.60;95.30;;;;;;5162895;28;20369;-73
2022/04/11 07:47:46;;;;;;;10.48;5.70;;;5.70;95.00;;;;;;5171342;28;20050;-73
2022/04/11 07:50:19;;;;;;;9.85;6.47;;;6.00;94.70;;;;;;5175584;28;20981;-73
2022/04/11 07:52:51;;;;;;;10.27;5.78;;;6.30;93.30;;;;;;5165446;28;20049;-73
2022/04/11 07:55:26;;;;;;;10.07;5.50;;;6.40;92.10;;;;;;5159471;28;20057;-72
2022/04/11 07:57:58;;;;;;;9.60;5.35;;;6.40;90.60;;;;;;5156502;28;20050;-73
2022/04/11 08:00:31;;;;;;;7.78;5.55;;;6.60;90.40;;;;;;5160502;28;20049;-73
2022/04/11 08:03:03;;;;;;;6.70;4.90;;;6.90;90.20;;;;;;5154414;28;20049;-73
2022/04/11 08:05:36;;;;;;;6.03;4.43;;;7.20;88.40;;;;;;5162170;28;20048;-73
2022/04/11 08:08:08;;;;;;;6.20;4.85;;;7.40;88.30;;;;;;5166334;28;20550;-73
2022/04/11 08:10:41;;;;;;;8.73;4.72;;;7.50;86.10;;;;;;5166702;28;20049;-73
2022/04/11 08:13:14;;;;;;;5.80;4.68;;;7.60;85.90;;;;;;5160634;28;20588;-73
2022/04/11 08:15:46;;;;;;;6.70;4.70;;;7.60;83.50;;;;;;5160738;28;21053;-73
2022/04/11 08:18:19;;;;;;;7.28;4.55;;;7.60;82.70;;;;;;5160467;28;20050;-73
2022/04/11 08:20:51;;;;;;;7.38;4.43;;;7.70;82.80;;;;;;5143473;28;25474;-73
2022/04/11 08:23:23;;;;;;;10.15;4.88;;;7.80;82.00;;;;;;5160632;28;20061;-73
2022/04/11 08:25:56;;;;;;;8.90;5.22;;;7.70;81.80;;;;;;5165199;28;20045;-73
2022/04/11 08:28:29;;;;;;;7.38;4.88;;;7.60;81.60;;;;;;5155591;28;20053;-73
2022/04/11 08:31:01;;;;;;;10.15;4.90;;;7.60;82.00;;;;;;5140429;28;20048;-72
2022/04/11 08:33:34;;;;;;;6.35;4.78;;;7.70;82.20;;;;;;5150267;28;20065;-72
2022/04/11 08:36:07;;;;;;;7.35;4.25;;;7.60;81.30;;;;;;5154513;28;20049;-72
2022/04/11 08:38:39;;;;;;;8.52;4.47;;;7.70;81.90;;;;;;5154139;28;20046;-74
2022/04/11 08:41:17;;;;;;;5.97;4.10;;;7.80;81.50;;;;;;5157583;28;20067;-72
2022/04/11 08:43:52;;;;;;;7.03;4.15;;;7.80;78.50;;;;;;5174483;28;20053;-72
2022/04/11 08:46:25;;;;;;;6.15;3.83;;;7.70;77.30;;;;;;5173388;28;20049;-72
2022/04/11 08:49:03;;;;;;;7.35;4.20;;;7.70;77.40;;;;;;5178239;28;20045;-71
2022/04/11 08:51:36;;;;;;;7.63;4.22;;;7.80;75.60;;;;;;5177337;28;20049;-72
2022/04/11 08:54:09;;;;;;;6.32;4.15;;;7.70;75.60;;;;;;5175176;28;20046;-71
2022/04/11 08:56:41;;;;;;;7.00;4.15;;;7.70;75.10;;;;;;5163771;28;20052;-72
2022/04/11 08:59:14;;;;;;;5.97;4.03;;;7.70;74.40;;;;;;5170765;28;20068;-72
2022/04/11 09:01:46;;;;;;;7.90;4.57;;;7.80;74.90;;;;;;5162336;28;20526;-72
2022/04/11 09:04:19;;;;;;;7.22;4.72;;;7.90;74.80;;;;;;5171311;28;20062;-72
2022/04/11 09:06:56;;;;;;;6.32;4.22;;;8.00;75.80;;;;;;5184347;28;20057;-72
2022/04/11 09:09:41;;;;;;;7.32;3.97;;;8.00;75.40;;;;;;5179129;28;20045;-72
2022/04/11 09:12:15;;;;;;;5.80;3.70;;;8.20;74.20;;;;;;5178988;28;20069;-72
2022/04/11 09:14:53;;;;;;;4.75;3.75;;;8.20;74.70;;;;;;5176436;28;20040;-72
2022/04/11 09:17:26;;;;;;;8.90;4.25;;;8.30;74.70;;;;;;5174577;28;20045;-72
2022/04/11 09:20:13;;;;;;;5.00;4.00;;;8.40;75.70;;;;;;5182791;28;20046;-72
2022/04/11 09:22:46;;;;;;;6.03;3.80;;;8.40;73.50;;;;;;5179115;28;20052;-72
2022/04/11 09:25:21;;;;;;;4.85;3.88;;;8.40;75.10;;;;;;5176854;28;20908;-72
2022/04/11 09:28:09;;;;;;;5.65;4.00;;;8.50;74.60;;;;;;5170622;28;20041;-72
2022/04/11 09:30:43;;;;;;;5.60;3.95;;;8.50;74.20;;;;;;5182767;28;20521;-72
2022/04/11 09:33:16;;;;;;;6.20;3.83;;;8.50;74.60;;;;;;5179331;28;20053;-72
2022/04/11 09:35:49;;;;;;;4.85;3.85;;;8.60;74.90;;;;;;5182105;28;20042;-72
2022/04/11 09:38:21;;;;;;;6.53;4.18;;;8.70;74.20;;;;;;5182624;28;20046;-72
2022/04/11 09:40:55;;;;;;;6.28;3.42;;;8.70;74.50;;;;;;5177992;28;20058;-72
2022/04/11 09:43:33;;;;;;;6.05;4.15;;;8.90;74.30;;;;;;5177107;28;20053;-72
2022/04/11 09:46:05;;;;;;;5.22;3.90;;;8.90;73.50;;;;;;5182049;28;20045;-72
2022/04/11 09:48:38;;;;;;;3.72;3.20;;;9.00;73.10;;;;;;5186471;28;20052;-73
2022/04/11 09:51:15;;;;;;;6.55;3.85;;;9.00;72.60;;;;;;5186431;28;20049;-73
2022/04/11 09:53:48;;;;;;;4.05;3.40;;;9.10;72.60;;;;;;5180822;28;20053;-72
2022/04/11 09:56:22;;;;;;;5.57;3.60;;;9.20;72.30;;;;;;5184453;28;20413;-73
2022/04/11 09:58:55;;;;;;;5.55;3.67;;;9.20;71.80;;;;;;5167515;28;20045;-72
2022/04/11 10:01:28;;;;;;;7.50;4.35;;;9.30;71.60;;;;;;5164970;28;20049;-72
2022/04/11 10:04:00;;;;;;;5.85;3.67;;;9.30;71.70;;;;;;5169634;28;20429;-72
2022/04/11 10:06:32;;;;;;;8.43;4.50;;;9.40;71.60;;;;;;5154557;28;20429;-72
2022/04/11 10:09:05;;;;;;;6.55;4.00;;;9.50;71.30;;;;;;5174446;28;20482;-72
2022/04/11 10:11:37;;;;;;;6.43;4.13;;;9.60;71.10;;;;;;5174484;28;20041;-72
2022/04/11 10:14:11;;;;;;;7.50;4.38;;;9.70;70.40;;;;;;5168560;28;20048;-74
2022/04/11 10:16:44;;;;;;;5.80;3.83;;;9.60;69.20;;;;;;5173290;28;20065;-72
2022/04/11 10:19:22;;;;;;;6.37;3.63;;;9.60;70.40;;;;;;5166011;28;20551;-72
2022/04/11 10:22:04;;;;;;;4.90;3.88;;;9.70;70.00;;;;;;5144233;28;20088;-72
2022/04/11 10:24:59;;;;;;;5.47;3.80;;;9.80;69.30;;;;;;5167255;28;20045;-72
2022/04/11 10:27:33;;;;;;;4.95;4.22;;;10.00;67.40;;;;;;5172132;28;20061;-72
2022/04/11 10:30:25;;;;;;;;;;;9.90;69.30;;;;;;5190485;28;20057;-72
2022/04/11 10:32:58;;;;;;;6.45;4.00;;;10.00;66.00;;;;;;5180514;28;19925;-72
2022/04/11 10:35:39;;;;;;;6.20;3.28;;;10.10;69.80;;;;;;5174202;28;20045;-72
2022/04/11 10:38:13;;;;;;;3.85;3.20;;;10.30;69.60;;;;;;5173035;28;20045;-72
2022/04/11 10:40:47;;;;;;;6.25;3.30;;;10.40;68.60;;;;;;5166786;28;20052;-72
2022/04/11 10:43:39;;;;;;;5.28;3.63;;;10.60;67.60;;;;;;5184089;28;20041;-72
2022/04/11 10:46:12;;;;;;;5.10;3.63;;;10.70;65.80;;;;;;5175108;28;20046;-72
2022/04/11 10:48:59;;;;;;;5.43;3.75;;;10.70;66.40;;;;;;5174847;28;21263;-71
2022/04/11 10:51:34;;;;;;;5.28;2.88;;;10.80;66.40;;;;;;5167578;28;20046;-71
2022/04/11 10:54:18;;;;;;;7.32;3.80;;;10.90;67.20;;;;;;5166956;28;20509;-72
2022/04/11 10:57:10;;;;;;;6.82;3.30;;;10.90;64.70;;;;;;5171002;28;20065;-72
2022/04/11 11:00:09;;;;;;;4.82;2.83;;;11.10;66.50;;;;;;5180520;28;20046;-72
2022/04/11 11:02:56;;;;;;;4.90;3.38;;;11.20;63.40;;;;;;5178119;28;20049;-72
2022/04/11 11:05:39;;;;;;;4.78;3.40;;;11.20;62.90;;;;;;5175705;28;20060;-72
2022/04/11 11:08:15;;;;;;;7.10;3.38;;;11.40;64.20;;;;;;5180202;28;20586;-72
2022/04/11 11:10:58;;;;;;;6.00;3.33;;;11.60;63.90;;;;;;5186351;28;20103;-72
2022/04/11 11:13:39;;;;;;;4.30;3.40;;;11.80;62.60;;;;;;5183595;28;20053;-73
2022/04/11 11:16:17;;;;;;;4.65;3.05;;;12.00;62.40;;;;;;5178125;28;20049;-73
2022/04/11 11:19:12;;;;;;;4.68;2.90;;;12.40;62.90;;;;;;5170860;28;20117;-73
2022/04/11 11:21:53;;;;;;;4.80;2.90;;;12.80;62.30;;;;;;5176910;28;20057;-73
2022/04/11 11:24:26;;;;;;;4.13;3.10;;;13.20;61.10;;;;;;5179779;28;20504;-73
2022/04/11 11:27:03;;;;;;;4.28;2.75;;;13.50;61.40;;;;;;5181834;28;20041;-73
2022/04/11 11:29:45;;;;;;;7.22;3.40;;;13.70;60.00;;;;;;5178311;28;20053;-73
2022/04/11 11:32:18;;;;;;;3.58;2.90;;;14.00;56.80;;;;;;5178050;28;20054;-72
2022/04/11 11:34:51;;;;;;;7.78;3.00;;;14.10;57.40;;;;;;5172419;28;20053;-73
2022/04/11 11:37:28;;;;;;;5.63;3.08;;;14.30;56.80;;;;;;5176785;28;20057;-72
2022/04/11 11:40:03;;;;;;;4.90;3.10;;;14.50;55.30;;;;;;5177834;28;20047;-71
2022/04/11 11:42:37;;;;;;;5.43;3.17;;;14.50;56.30;;;;;;5179022;28;20038;-73
2022/04/11 11:45:09;;;;;;;5.45;3.08;;;14.90;56.90;;;;;;5181233;28;20052;-72
2022/04/11 11:47:42;;;;;;;3.00;2.70;;;15.30;56.40;;;;;;5175315;28;20045;-73
2022/04/11 11:50:14;;;;;;;4.45;3.10;;;15.20;55.50;;;;;;5176475;28;20520;-72
2022/04/11 11:52:59;;;;;;;3.53;2.92;;;15.60;54.60;;;;;;5177590;28;20557;-72
2022/04/11 11:55:31;;;;;;;4.22;3.10;;;15.90;53.50;;;;;;5159233;28;20045;-73
2022/04/11 11:58:05;;;;;;;4.47;3.22;;;15.90;54.60;;;;;;5180321;28;20046;-72
2022/04/11 12:00:38;;;;;;;4.43;2.97;;;16.30;54.60;;;;;;5180314;28;20930;-72
2022/04/11 12:06:08;;;;;;;3.88;2.42;;;16.60;51.60;;;;;;5176922;28;20042;-72
2022/04/11 12:09:01;;;;;;;4.10;3.08;;;16.90;53.50;;;;;;5176645;28;20053;-73
2022/04/11 12:11:34;;;;;;;3.17;2.63;;;17.30;50.20;;;;;;5169225;28;20482;-72
2022/04/11 12:14:08;;;;;;;4.43;2.83;;;17.30;50.80;;;;;;5174718;28;20045;-72
2022/04/11 12:17:00;;;;;;;4.20;2.42;;;17.50;50.60;;;;;;5172372;28;20049;-73
2022/04/11 12:19:37;;;;;;;5.05;2.53;;;17.50;48.70;;;;;;5175955;28;20057;-73
2022/04/11 12:22:13;;;;;;;4.15;2.40;;;17.50;47.20;;;;;;5174808;28;20053;-72
2022/04/11 12:24:46;;;;;;;2.88;2.55;;;17.40;48.60;;;;;;5178211;28;20527;-72
2022/04/11 12:27:21;;;;;;;3.13;2.55;;;17.50;48.90;;;;;;5186707;28;20050;-72
2022/04/11 12:29:53;;;;;;;5.15;2.60;;;17.50;48.50;;;;;;5175825;28;20524;-72
2022/04/11 12:32:30;;;;;;;5.38;2.65;;;17.60;50.00;;;;;;5174679;28;20576;-72
2022/04/11 12:35:14;;;;;;;3.40;2.42;;;17.70;49.50;;;;;;5175617;28;20046;-72
2022/04/11 12:37:49;;;;;;;5.50;3.17;;;17.70;47.20;;;;;;5176839;28;20069;-72
2022/04/11 12:40:39;;;;;;;4.50;2.83;;;17.70;48.40;;;;;;5156053;28;20042;-72
2022/04/11 12:43:27;;;;;;;3.03;2.63;;;17.70;48.20;;;;;;5174849;28;20046;-72
2022/04/11 12:46:06;;;;;;;3.28;2.63;;;17.30;49.00;;;;;;5177892;28;20733;-72
2022/04/11 12:48:56;;;;;;;4.00;2.70;;;17.80;48.20;;;;;;5185028;28;20054;-72
2022/04/11 12:51:28;;;;;;;4.05;2.22;;;18.00;45.90;;;;;;5177954;28;20054;-72
2022/04/11 12:54:06;;;;;;;3.07;2.07;;;18.20;47.90;;;;;;5178409;28;20042;-72
2022/04/11 12:56:46;;;;;;;4.38;2.42;;;18.00;45.90;;;;;;5187452;28;20049;-72
2022/04/11 12:59:39;;;;;;;4.70;2.35;;;18.30;45.40;;;;;;5187816;28;20057;-72
2022/04/11 13:02:14;;;;;;;3.72;2.00;;;18.40;44.30;;;;;;5166247;28;20064;-72
2022/04/11 13:04:52;;;;;;;5.57;2.08;;;18.80;45.00;;;;;;5177771;28;20049;-71
2022/04/11 13:07:47;;;;;;;3.72;2.25;;;18.80;44.80;;;;;;5179749;28;20588;-72
2022/04/11 13:10:19;;;;;;;4.00;2.20;;;18.90;44.80;;;;;;5186401;28;20049;-72
2022/04/11 13:12:52;;;;;;;4.17;2.23;;;18.80;45.80;;;;;;5186491;28;20061;-71
2022/04/11 13:15:26;;;;;;;6.25;3.05;;;19.00;45.70;;;;;;5196013;28;20054;-73
2022/04/11 13:20:49;;;;;;;3.90;2.67;;;19.30;42.90;;;;;;5190576;28;19921;-72
2022/04/11 13:23:22;;;;;;;3.10;2.33;;;19.10;45.40;;;;;;5174671;28;20037;-72
2022/04/11 13:25:54;;;;;;;2.83;2.10;;;19.30;45.10;;;;;;5161212;28;20069;-73
2022/04/11 13:28:27;;;;;;;3.22;2.53;;;19.80;45.10;;;;;;5158762;28;20517;-72
2022/04/11 13:31:00;;;;;;;2.42;2.00;;;19.90;44.40;;;;;;5168381;28;20064;-72
2022/04/11 13:33:33;;;;;;;4.30;1.70;;;19.90;45.60;;;;;;5178348;28;20112;-73
2022/04/11 13:36:05;;;;;;;2.55;2.30;;;19.60;45.10;;;;;;5171739;28;20291;-72
2022/04/11 13:38:38;;;;;;;4.53;2.10;;;19.50;45.10;;;;;;5175394;28;20056;-72